Observations for Trim Patrick St
| Time | AQI | Temp °C | Hum % | Pres Pa | CO μg/m³ | H₂S μg/m³ | NO μg/m³ | NO₂ μg/m³ | O₃ μg/m³ | SO₂ μg/m³ | PM1 μg/m³ | PM2.5 μg/m³ | PM10 μg/m³ |
|---|---|---|---|---|---|---|---|---|---|---|---|---|---|
| Friday 28 August 2026 | |||||||||||||
| 13:18 | 2 | 28.9 | 55 | 70,060 | 0 | 0 | 1.29 | 6.63 | 58.25 | 13.94 | 14 | 23.42 | 25.77 |
| 13:16 | 2 | 29 | 57 | 70,133 | 0 | 0 | 1.43 | 8.45 | 66.25 | 13.12 | 13.14 | 20.24 | 22.26 |
| 13:11 | 2 | 28.9 | 57 | 70,315 | 0 | 0 | 1.52 | 5.1 | 61.83 | 13.29 | 14 | 21.68 | 23.85 |
| 13:10 | 2 | 28.9 | 53 | 70,451 | 0 | 0 | 1.34 | 2.33 | 42.59 | 14.07 | 14.86 | 22.08 | 24.29 |
| 13:09 | 2 | 28.9 | 59 | 70,532 | 0 | 0 | 1.63 | 1.4 | 62.96 | 14.06 | 14 | 21.47 | 23.61 |
| 13:08 | 2 | 28.9 | 53 | 70,677 | 0 | 0 | 1.42 | 5.22 | 56.14 | 13.91 | 14.86 | 22.85 | 25.13 |
| 13:07 | 2 | 28.9 | 53 | 70,726 | 0 | 0 | 1.37 | 1.74 | 51.78 | 14.48 | 12.29 | 19.13 | 21.05 |
| 13:06 | 2 | 29 | 54 | 70,825 | 0 | 0 | 1.49 | 13.18 | 69.16 | 12.62 | 14 | 20.47 | 22.52 |
| 13:05 | 2 | 29 | 58 | 70,641 | 0 | 0 | 1.64 | 3.54 | 50.24 | 14.37 | 12.29 | 18.55 | 20.4 |
| 13:03 | 2 | 29 | 56 | 70,741 | 0 | 0 | 1.58 | 4.52 | 54.89 | 14.15 | 14.86 | 23.32 | 25.66 |
| 13:02 | 2 | 29 | 53 | 70,690 | 0 | 0 | 1.57 | 8.84 | 59.01 | 12.84 | 14.86 | 22.15 | 24.37 |
| 13:01 | 2 | 29.1 | 54 | 70,661 | 0 | 0 | 1.7 | 1.18 | 29.54 | 14.72 | 18.29 | 25.77 | 28.34 |
| 13:00 | 2 | 29.1 | 57 | 70,745 | 0 | 0 | 1.92 | 6.29 | 37.06 | 13.62 | 14.86 | 24.71 | 27.18 |
| 12:59 | 2 | 29.2 | 54 | 70,829 | 0 | 0 | 1.7 | 12.56 | 18.1 | 15.9 | 16.57 | 22.74 | 25.01 |
| 12:58 | 2 | 29.2 | 57 | 70,999 | 0 | 0 | 1.91 | 8.87 | 60.1 | 13.69 | 13.14 | 19.49 | 21.44 |
| 12:57 | 2 | 29.1 | 57 | 71,128 | 0 | 0 | 1.64 | 8.73 | 63.57 | 12.77 | 14 | 21.69 | 23.86 |
| 12:56 | 2 | 29 | 61 | 71,338 | 0 | 0 | 1.81 | 2.68 | 38.75 | 13.31 | 14.86 | 22.79 | 25.07 |
| 12:55 | 2 | 28.9 | 58 | 71,619 | 0 | 0 | 1.67 | 0 | 43.49 | 14.37 | 14.86 | 23.06 | 25.36 |
| 12:54 | 2 | 28.8 | 54 | 72,057 | 0 | 0 | 1.39 | 5.62 | 50.27 | 12.82 | 15.71 | 23.57 | 25.93 |
| 12:53 | 2 | 28.7 | 55 | 72,257 | 0 | 0 | 1.31 | 0.37 | 43.46 | 14.17 | 14 | 20.41 | 22.45 |